sensor_id;sensor_type;location;lat;lon;timestamp;P1;durP1;ratioP1;P2;durP2;ratioP2
43248;SDS011;29216;51.248;6.808;2023-09-08T00:01:28;5.40;;;4.40;;
43248;SDS011;29216;51.248;6.808;2023-09-08T00:03:54;6.28;;;4.57;;
43248;SDS011;29216;51.248;6.808;2023-09-08T00:06:20;4.88;;;4.18;;
43248;SDS011;29216;51.248;6.808;2023-09-08T00:08:46;4.30;;;3.85;;
43248;SDS011;29216;51.248;6.808;2023-09-08T00:11:12;5.38;;;4.18;;
43248;SDS011;29216;51.248;6.808;2023-09-08T00:13:38;5.28;;;4.47;;
43248;SDS011;29216;51.248;6.808;2023-09-08T00:16:05;6.57;;;4.30;;
43248;SDS011;29216;51.248;6.808;2023-09-08T00:18:32;6.60;;;4.15;;
43248;SDS011;29216;51.248;6.808;2023-09-08T00:20:58;5.57;;;4.45;;
43248;SDS011;29216;51.248;6.808;2023-09-08T00:23:24;6.47;;;4.10;;
43248;SDS011;29216;51.248;6.808;2023-09-08T00:25:52;6.13;;;4.45;;
43248;SDS011;29216;51.248;6.808;2023-09-08T00:28:18;5.43;;;4.22;;
43248;SDS011;29216;51.248;6.808;2023-09-08T00:30:44;5.35;;;4.28;;
43248;SDS011;29216;51.248;6.808;2023-09-08T00:33:10;6.50;;;4.57;;
43248;SDS011;29216;51.248;6.808;2023-09-08T00:35:38;6.72;;;4.47;;
43248;SDS011;29216;51.248;6.808;2023-09-08T00:38:04;6.38;;;4.75;;
43248;SDS011;29216;51.248;6.808;2023-09-08T00:40:30;8.55;;;4.78;;
43248;SDS011;29216;51.248;6.808;2023-09-08T00:42:57;9.75;;;5.10;;
43248;SDS011;29216;51.248;6.808;2023-09-08T00:45:23;6.05;;;4.57;;
43248;SDS011;29216;51.248;6.808;2023-09-08T00:47:51;5.50;;;4.60;;
43248;SDS011;29216;51.248;6.808;2023-09-08T00:50:17;5.60;;;4.43;;
43248;SDS011;29216;51.248;6.808;2023-09-08T00:52:43;5.60;;;4.68;;
43248;SDS011;29216;51.248;6.808;2023-09-08T00:55:09;6.40;;;4.55;;
43248;SDS011;29216;51.248;6.808;2023-09-08T00:57:35;5.15;;;4.50;;
43248;SDS011;29216;51.248;6.808;2023-09-08T01:00:01;6.35;;;4.82;;
43248;SDS011;29216;51.248;6.808;2023-09-08T01:02:30;7.45;;;4.63;;
43248;SDS011;29216;51.248;6.808;2023-09-08T01:04:57;8.52;;;5.18;;
43248;SDS011;29216;51.248;6.808;2023-09-08T01:07:24;6.78;;;5.03;;
43248;SDS011;29216;51.248;6.808;2023-09-08T01:09:50;5.90;;;5.22;;
43248;SDS011;29216;51.248;6.808;2023-09-08T01:12:16;5.43;;;4.60;;
43248;SDS011;29216;51.248;6.808;2023-09-08T01:14:42;6.07;;;4.93;;
43248;SDS011;29216;51.248;6.808;2023-09-08T01:17:08;8.45;;;4.93;;
43248;SDS011;29216;51.248;6.808;2023-09-08T01:19:34;8.23;;;4.80;;
43248;SDS011;29216;51.248;6.808;2023-09-08T01:22:11;6.20;;;4.90;;
43248;SDS011;29216;51.248;6.808;2023-09-08T01:27:23;5.25;;;4.75;;
43248;SDS011;29216;51.248;6.808;2023-09-08T01:29:49;6.40;;;5.10;;
43248;SDS011;29216;51.248;6.808;2023-09-08T01:32:16;6.40;;;5.53;;
43248;SDS011;29216;51.248;6.808;2023-09-08T01:34:42;8.38;;;5.05;;
43248;SDS011;29216;51.248;6.808;2023-09-08T01:37:08;7.57;;;5.18;;
43248;SDS011;29216;51.248;6.808;2023-09-08T01:39:34;8.68;;;5.25;;
43248;SDS011;29216;51.248;6.808;2023-09-08T01:42:00;7.47;;;4.93;;
43248;SDS011;29216;51.248;6.808;2023-09-08T01:44:26;8.10;;;5.20;;
43248;SDS011;29216;51.248;6.808;2023-09-08T01:46:53;8.43;;;5.50;;
43248;SDS011;29216;51.248;6.808;2023-09-08T01:49:22;7.32;;;5.30;;
43248;SDS011;29216;51.248;6.808;2023-09-08T01:51:48;5.88;;;5.22;;
43248;SDS011;29216;51.248;6.808;2023-09-08T01:54:14;6.43;;;5.13;;
43248;SDS011;29216;51.248;6.808;2023-09-08T01:56:40;7.55;;;5.82;;
43248;SDS011;29216;51.248;6.808;2023-09-08T01:59:06;7.93;;;5.28;;
43248;SDS011;29216;51.248;6.808;2023-09-08T02:01:32;8.13;;;5.63;;
43248;SDS011;29216;51.248;6.808;2023-09-08T02:03:58;6.13;;;5.53;;
43248;SDS011;29216;51.248;6.808;2023-09-08T02:06:24;7.15;;;5.50;;
43248;SDS011;29216;51.248;6.808;2023-09-08T02:08:49;9.75;;;5.50;;
43248;SDS011;29216;51.248;6.808;2023-09-08T02:11:15;8.35;;;5.40;;
43248;SDS011;29216;51.248;6.808;2023-09-08T02:13:41;7.25;;;5.40;;
43248;SDS011;29216;51.248;6.808;2023-09-08T02:16:12;6.47;;;5.70;;
43248;SDS011;29216;51.248;6.808;2023-09-08T02:18:38;7.28;;;5.60;;
43248;SDS011;29216;51.248;6.808;2023-09-08T02:21:04;6.72;;;5.65;;
43248;SDS011;29216;51.248;6.808;2023-09-08T02:23:30;6.70;;;5.75;;
43248;SDS011;29216;51.248;6.808;2023-09-08T02:25:56;9.48;;;5.40;;
43248;SDS011;29216;51.248;6.808;2023-09-08T02:28:22;7.65;;;5.57;;
43248;SDS011;29216;51.248;6.808;2023-09-08T02:30:48;6.93;;;5.78;;
43248;SDS011;29216;51.248;6.808;2023-09-08T02:33:14;8.43;;;5.45;;
43248;SDS011;29216;51.248;6.808;2023-09-08T02:35:40;7.03;;;5.95;;
43248;SDS011;29216;51.248;6.808;2023-09-08T02:38:06;8.52;;;6.13;;
43248;SDS011;29216;51.248;6.808;2023-09-08T02:40:33;6.75;;;5.72;;
43248;SDS011;29216;51.248;6.808;2023-09-08T02:43:02;8.93;;;5.63;;
43248;SDS011;29216;51.248;6.808;2023-09-08T02:45:29;6.93;;;5.28;;
43248;SDS011;29216;51.248;6.808;2023-09-08T02:47:55;6.40;;;5.57;;
43248;SDS011;29216;51.248;6.808;2023-09-08T02:50:21;7.28;;;5.85;;
43248;SDS011;29216;51.248;6.808;2023-09-08T02:52:48;6.50;;;5.65;;
43248;SDS011;29216;51.248;6.808;2023-09-08T02:55:14;6.57;;;5.93;;
43248;SDS011;29216;51.248;6.808;2023-09-08T02:57:40;7.07;;;5.63;;
43248;SDS011;29216;51.248;6.808;2023-09-08T03:00:06;7.70;;;5.60;;
43248;SDS011;29216;51.248;6.808;2023-09-08T03:02:33;8.30;;;6.30;;
43248;SDS011;29216;51.248;6.808;2023-09-08T03:04:59;7.60;;;5.85;;
43248;SDS011;29216;51.248;6.808;2023-09-08T03:07:25;6.88;;;5.72;;
43248;SDS011;29216;51.248;6.808;2023-09-08T03:09:52;8.15;;;6.25;;
43248;SDS011;29216;51.248;6.808;2023-09-08T03:12:18;7.43;;;6.15;;
43248;SDS011;29216;51.248;6.808;2023-09-08T03:14:44;7.63;;;6.45;;
43248;SDS011;29216;51.248;6.808;2023-09-08T03:17:10;9.57;;;6.63;;
43248;SDS011;29216;51.248;6.808;2023-09-08T03:19:37;7.07;;;6.38;;
43248;SDS011;29216;51.248;6.808;2023-09-08T03:22:03;7.03;;;6.15;;
43248;SDS011;29216;51.248;6.808;2023-09-08T03:24:29;9.02;;;6.75;;
43248;SDS011;29216;51.248;6.808;2023-09-08T03:26:55;9.88;;;6.47;;
43248;SDS011;29216;51.248;6.808;2023-09-08T03:29:22;14.52;;;6.75;;
43248;SDS011;29216;51.248;6.808;2023-09-08T03:31:48;9.32;;;6.18;;
43248;SDS011;29216;51.248;6.808;2023-09-08T03:34:14;8.05;;;5.90;;
43248;SDS011;29216;51.248;6.808;2023-09-08T03:36:40;12.55;;;6.60;;
43248;SDS011;29216;51.248;6.808;2023-09-08T03:39:06;7.65;;;5.97;;
43248;SDS011;29216;51.248;6.808;2023-09-08T03:41:34;10.65;;;6.35;;
43248;SDS011;29216;51.248;6.808;2023-09-08T03:44:00;8.05;;;6.20;;
43248;SDS011;29216;51.248;6.808;2023-09-08T03:46:26;9.35;;;6.82;;
43248;SDS011;29216;51.248;6.808;2023-09-08T03:48:52;9.80;;;6.00;;
43248;SDS011;29216;51.248;6.808;2023-09-08T03:51:23;8.95;;;5.50;;
43248;SDS011;29216;51.248;6.808;2023-09-08T03:53:49;9.15;;;6.32;;
43248;SDS011;29216;51.248;6.808;2023-09-08T03:56:16;7.10;;;5.80;;
43248;SDS011;29216;51.248;6.808;2023-09-08T03:58:42;7.57;;;5.82;;
43248;SDS011;29216;51.248;6.808;2023-09-08T04:01:08;7.25;;;5.90;;
43248;SDS011;29216;51.248;6.808;2023-09-08T04:03:34;7.63;;;6.07;;
43248;SDS011;29216;51.248;6.808;2023-09-08T04:06:00;7.82;;;5.90;;
43248;SDS011;29216;51.248;6.808;2023-09-08T04:08:26;6.63;;;5.93;;
43248;SDS011;29216;51.248;6.808;2023-09-08T04:10:52;7.35;;;5.38;;
43248;SDS011;29216;51.248;6.808;2023-09-08T04:13:18;6.78;;;5.57;;
43248;SDS011;29216;51.248;6.808;2023-09-08T04:15:44;6.63;;;5.50;;
43248;SDS011;29216;51.248;6.808;2023-09-08T04:18:10;9.70;;;5.82;;
43248;SDS011;29216;51.248;6.808;2023-09-08T04:20:36;6.68;;;5.40;;
43248;SDS011;29216;51.248;6.808;2023-09-08T04:23:02;7.20;;;5.28;;
43248;SDS011;29216;51.248;6.808;2023-09-08T04:25:28;8.05;;;6.00;;
43248;SDS011;29216;51.248;6.808;2023-09-08T04:27:54;6.38;;;5.50;;
43248;SDS011;29216;51.248;6.808;2023-09-08T04:30:20;7.93;;;6.15;;
43248;SDS011;29216;51.248;6.808;2023-09-08T04:32:46;9.30;;;5.88;;
43248;SDS011;29216;51.248;6.808;2023-09-08T04:35:12;6.68;;;5.88;;
43248;SDS011;29216;51.248;6.808;2023-09-08T04:37:38;8.23;;;5.82;;
43248;SDS011;29216;51.248;6.808;2023-09-08T04:40:05;8.73;;;5.47;;
43248;SDS011;29216;51.248;6.808;2023-09-08T04:42:32;7.28;;;5.30;;
43248;SDS011;29216;51.248;6.808;2023-09-08T04:44:58;8.75;;;6.00;;
43248;SDS011;29216;51.248;6.808;2023-09-08T04:47:24;9.55;;;6.28;;
43248;SDS011;29216;51.248;6.808;2023-09-08T04:49:50;8.82;;;6.00;;
43248;SDS011;29216;51.248;6.808;2023-09-08T04:52:16;7.70;;;5.50;;
43248;SDS011;29216;51.248;6.808;2023-09-08T04:54:42;11.65;;;5.65;;
43248;SDS011;29216;51.248;6.808;2023-09-08T04:59:36;7.00;;;5.68;;
43248;SDS011;29216;51.248;6.808;2023-09-08T05:02:04;11.02;;;6.13;;
43248;SDS011;29216;51.248;6.808;2023-09-08T05:04:30;7.68;;;5.78;;
43248;SDS011;29216;51.248;6.808;2023-09-08T05:06:56;8.50;;;6.15;;
43248;SDS011;29216;51.248;6.808;2023-09-08T05:09:22;7.38;;;6.05;;
43248;SDS011;29216;51.248;6.808;2023-09-08T05:11:47;6.85;;;5.43;;
43248;SDS011;29216;51.248;6.808;2023-09-08T05:14:13;6.35;;;5.70;;
43248;SDS011;29216;51.248;6.808;2023-09-08T05:16:39;11.75;;;6.00;;
43248;SDS011;29216;51.248;6.808;2023-09-08T05:19:14;9.77;;;6.10;;
43248;SDS011;29216;51.248;6.808;2023-09-08T05:21:40;8.10;;;6.20;;
43248;SDS011;29216;51.248;6.808;2023-09-08T05:24:06;7.47;;;5.65;;
43248;SDS011;29216;51.248;6.808;2023-09-08T05:26:33;7.95;;;6.10;;
43248;SDS011;29216;51.248;6.808;2023-09-08T05:28:59;12.52;;;5.45;;
43248;SDS011;29216;51.248;6.808;2023-09-08T05:31:25;8.60;;;6.13;;
43248;SDS011;29216;51.248;6.808;2023-09-08T05:33:51;7.32;;;6.10;;
43248;SDS011;29216;51.248;6.808;2023-09-08T05:36:17;7.63;;;5.55;;
43248;SDS011;29216;51.248;6.808;2023-09-08T05:38:43;10.05;;;6.30;;
43248;SDS011;29216;51.248;6.808;2023-09-08T05:41:09;8.35;;;5.63;;
43248;SDS011;29216;51.248;6.808;2023-09-08T05:43:35;9.82;;;6.18;;
43248;SDS011;29216;51.248;6.808;2023-09-08T05:46:01;8.02;;;6.05;;
43248;SDS011;29216;51.248;6.808;2023-09-08T05:48:29;9.43;;;5.63;;
43248;SDS011;29216;51.248;6.808;2023-09-08T05:50:55;10.30;;;6.03;;
43248;SDS011;29216;51.248;6.808;2023-09-08T05:53:21;7.60;;;5.78;;
43248;SDS011;29216;51.248;6.808;2023-09-08T05:55:47;8.10;;;5.97;;
43248;SDS011;29216;51.248;6.808;2023-09-08T05:58:13;18.50;;;6.28;;
43248;SDS011;29216;51.248;6.808;2023-09-08T06:00:39;8.73;;;5.75;;
43248;SDS011;29216;51.248;6.808;2023-09-08T06:03:05;8.98;;;6.05;;
43248;SDS011;29216;51.248;6.808;2023-09-08T06:05:31;9.23;;;5.50;;
43248;SDS011;29216;51.248;6.808;2023-09-08T06:07:56;8.93;;;6.43;;
43248;SDS011;29216;51.248;6.808;2023-09-08T06:10:22;8.57;;;5.18;;
43248;SDS011;29216;51.248;6.808;2023-09-08T06:12:48;8.13;;;5.30;;
43248;SDS011;29216;51.248;6.808;2023-09-08T06:15:17;7.90;;;6.28;;
43248;SDS011;29216;51.248;6.808;2023-09-08T06:17:43;9.45;;;5.18;;
43248;SDS011;29216;51.248;6.808;2023-09-08T06:20:11;7.63;;;5.07;;
43248;SDS011;29216;51.248;6.808;2023-09-08T06:22:37;10.18;;;5.50;;
43248;SDS011;29216;51.248;6.808;2023-09-08T06:25:03;10.77;;;5.22;;
43248;SDS011;29216;51.248;6.808;2023-09-08T06:27:29;6.03;;;5.18;;
43248;SDS011;29216;51.248;6.808;2023-09-08T06:29:55;7.15;;;5.00;;
43248;SDS011;29216;51.248;6.808;2023-09-08T06:32:22;7.13;;;5.28;;
43248;SDS011;29216;51.248;6.808;2023-09-08T06:34:48;9.75;;;5.68;;
43248;SDS011;29216;51.248;6.808;2023-09-08T06:37:14;6.88;;;5.05;;
43248;SDS011;29216;51.248;6.808;2023-09-08T06:39:40;8.18;;;4.65;;
43248;SDS011;29216;51.248;6.808;2023-09-08T06:42:06;12.90;;;4.57;;
43248;SDS011;29216;51.248;6.808;2023-09-08T06:44:32;5.15;;;4.63;;
43248;SDS011;29216;51.248;6.808;2023-09-08T06:46:58;7.07;;;5.05;;
43248;SDS011;29216;51.248;6.808;2023-09-08T06:49:24;6.22;;;4.30;;
43248;SDS011;29216;51.248;6.808;2023-09-08T06:51:50;9.77;;;4.95;;
43248;SDS011;29216;51.248;6.808;2023-09-08T06:54:16;6.68;;;4.20;;
43248;SDS011;29216;51.248;6.808;2023-09-08T06:56:42;6.00;;;4.13;;
43248;SDS011;29216;51.248;6.808;2023-09-08T06:59:08;7.72;;;4.20;;
43248;SDS011;29216;51.248;6.808;2023-09-08T07:01:34;7.20;;;4.63;;
43248;SDS011;29216;51.248;6.808;2023-09-08T07:04:00;5.55;;;4.15;;
43248;SDS011;29216;51.248;6.808;2023-09-08T07:06:26;11.45;;;4.85;;
43248;SDS011;29216;51.248;6.808;2023-09-08T07:08:52;7.30;;;3.88;;
43248;SDS011;29216;51.248;6.808;2023-09-08T07:11:18;5.50;;;3.95;;
43248;SDS011;29216;51.248;6.808;2023-09-08T07:13:44;7.03;;;4.07;;
43248;SDS011;29216;51.248;6.808;2023-09-08T07:16:10;5.38;;;3.95;;
43248;SDS011;29216;51.248;6.808;2023-09-08T07:18:36;8.38;;;4.40;;
43248;SDS011;29216;51.248;6.808;2023-09-08T07:21:03;5.25;;;3.85;;
43248;SDS011;29216;51.248;6.808;2023-09-08T07:23:29;6.25;;;3.88;;
43248;SDS011;29216;51.248;6.808;2023-09-08T07:25:55;6.22;;;4.20;;
43248;SDS011;29216;51.248;6.808;2023-09-08T07:28:21;7.32;;;3.78;;
43248;SDS011;29216;51.248;6.808;2023-09-08T07:30:47;4.50;;;3.75;;
43248;SDS011;29216;51.248;6.808;2023-09-08T07:33:13;5.13;;;4.30;;
43248;SDS011;29216;51.248;6.808;2023-09-08T07:35:39;5.80;;;3.63;;
43248;SDS011;29216;51.248;6.808;2023-09-08T07:38:05;7.97;;;3.63;;
43248;SDS011;29216;51.248;6.808;2023-09-08T07:40:32;5.35;;;3.78;;
43248;SDS011;29216;51.248;6.808;2023-09-08T07:42:58;5.53;;;3.53;;
43248;SDS011;29216;51.248;6.808;2023-09-08T07:45:24;4.53;;;3.13;;
43248;SDS011;29216;51.248;6.808;2023-09-08T07:47:50;5.53;;;3.70;;
43248;SDS011;29216;51.248;6.808;2023-09-08T07:50:23;6.38;;;3.83;;
43248;SDS011;29216;51.248;6.808;2023-09-08T07:52:50;6.90;;;3.72;;
43248;SDS011;29216;51.248;6.808;2023-09-08T07:55:16;4.70;;;3.47;;
43248;SDS011;29216;51.248;6.808;2023-09-08T07:57:43;7.88;;;3.63;;
43248;SDS011;29216;51.248;6.808;2023-09-08T08:00:09;3.97;;;3.58;;
43248;SDS011;29216;51.248;6.808;2023-09-08T08:02:36;5.63;;;4.10;;
43248;SDS011;29216;51.248;6.808;2023-09-08T08:05:02;8.23;;;3.95;;
43248;SDS011;29216;51.248;6.808;2023-09-08T08:07:28;4.60;;;3.63;;
43248;SDS011;29216;51.248;6.808;2023-09-08T08:09:55;8.23;;;3.70;;
43248;SDS011;29216;51.248;6.808;2023-09-08T08:12:21;7.82;;;3.58;;
43248;SDS011;29216;51.248;6.808;2023-09-08T08:14:47;9.52;;;3.90;;
43248;SDS011;29216;51.248;6.808;2023-09-08T08:17:13;6.78;;;3.95;;
43248;SDS011;29216;51.248;6.808;2023-09-08T08:19:42;6.07;;;4.00;;
43248;SDS011;29216;51.248;6.808;2023-09-08T08:22:08;3.97;;;3.50;;
43248;SDS011;29216;51.248;6.808;2023-09-08T08:24:34;5.57;;;3.85;;
43248;SDS011;29216;51.248;6.808;2023-09-08T08:27:01;8.48;;;3.60;;
43248;SDS011;29216;51.248;6.808;2023-09-08T08:29:28;4.07;;;3.55;;
43248;SDS011;29216;51.248;6.808;2023-09-08T08:31:54;5.07;;;3.60;;
43248;SDS011;29216;51.248;6.808;2023-09-08T08:34:20;10.05;;;3.85;;
43248;SDS011;29216;51.248;6.808;2023-09-08T08:36:46;5.90;;;3.63;;
43248;SDS011;29216;51.248;6.808;2023-09-08T08:39:12;4.32;;;3.50;;
43248;SDS011;29216;51.248;6.808;2023-09-08T08:41:37;4.68;;;3.63;;
43248;SDS011;29216;51.248;6.808;2023-09-08T08:44:06;4.47;;;3.70;;
43248;SDS011;29216;51.248;6.808;2023-09-08T08:46:32;5.60;;;3.58;;
43248;SDS011;29216;51.248;6.808;2023-09-08T08:48:59;8.10;;;4.35;;
43248;SDS011;29216;51.248;6.808;2023-09-08T08:51:26;3.85;;;3.45;;
43248;SDS011;29216;51.248;6.808;2023-09-08T08:53:54;8.85;;;4.32;;
43248;SDS011;29216;51.248;6.808;2023-09-08T08:56:20;14.20;;;4.03;;
43248;SDS011;29216;51.248;6.808;2023-09-08T08:58:46;4.68;;;3.75;;
43248;SDS011;29216;51.248;6.808;2023-09-08T09:01:12;4.50;;;3.63;;
43248;SDS011;29216;51.248;6.808;2023-09-08T09:03:38;6.00;;;3.97;;
43248;SDS011;29216;51.248;6.808;2023-09-08T09:06:05;9.82;;;4.38;;
43248;SDS011;29216;51.248;6.808;2023-09-08T09:08:32;7.43;;;4.18;;
43248;SDS011;29216;51.248;6.808;2023-09-08T09:10:58;7.32;;;4.30;;
43248;SDS011;29216;51.248;6.808;2023-09-08T09:13:24;5.75;;;4.45;;
43248;SDS011;29216;51.248;6.808;2023-09-08T09:15:50;9.35;;;4.63;;
43248;SDS011;29216;51.248;6.808;2023-09-08T09:18:16;7.22;;;4.00;;
43248;SDS011;29216;51.248;6.808;2023-09-08T09:20:52;5.63;;;3.97;;
43248;SDS011;29216;51.248;6.808;2023-09-08T09:23:40;9.10;;;4.25;;
43248;SDS011;29216;51.248;6.808;2023-09-08T09:26:05;5.38;;;4.10;;
43248;SDS011;29216;51.248;6.808;2023-09-08T09:28:31;5.13;;;3.50;;
43248;SDS011;29216;51.248;6.808;2023-09-08T09:30:57;6.05;;;4.07;;
43248;SDS011;29216;51.248;6.808;2023-09-08T09:33:24;8.07;;;4.45;;
43248;SDS011;29216;51.248;6.808;2023-09-08T09:35:51;7.45;;;4.00;;
43248;SDS011;29216;51.248;6.808;2023-09-08T09:38:17;4.80;;;4.20;;
43248;SDS011;29216;51.248;6.808;2023-09-08T09:40:44;6.15;;;3.92;;
43248;SDS011;29216;51.248;6.808;2023-09-08T09:43:10;6.28;;;4.80;;
43248;SDS011;29216;51.248;6.808;2023-09-08T09:45:37;7.32;;;4.13;;
43248;SDS011;29216;51.248;6.808;2023-09-08T09:48:03;8.35;;;4.25;;
43248;SDS011;29216;51.248;6.808;2023-09-08T09:50:31;4.75;;;3.85;;
43248;SDS011;29216;51.248;6.808;2023-09-08T09:52:58;10.98;;;4.25;;
43248;SDS011;29216;51.248;6.808;2023-09-08T09:55:25;7.63;;;3.90;;
43248;SDS011;29216;51.248;6.808;2023-09-08T09:57:52;6.80;;;4.10;;
43248;SDS011;29216;51.248;6.808;2023-09-08T10:00:19;6.53;;;4.32;;
43248;SDS011;29216;51.248;6.808;2023-09-08T10:02:45;7.35;;;4.07;;
43248;SDS011;29216;51.248;6.808;2023-09-08T10:05:12;5.82;;;4.10;;
43248;SDS011;29216;51.248;6.808;2023-09-08T10:07:41;7.75;;;3.97;;
43248;SDS011;29216;51.248;6.808;2023-09-08T10:10:08;5.05;;;3.83;;
43248;SDS011;29216;51.248;6.808;2023-09-08T10:12:34;6.22;;;3.97;;
43248;SDS011;29216;51.248;6.808;2023-09-08T10:15:02;7.13;;;4.00;;
43248;SDS011;29216;51.248;6.808;2023-09-08T10:17:31;6.35;;;4.03;;
43248;SDS011;29216;51.248;6.808;2023-09-08T10:20:00;9.77;;;4.00;;
43248;SDS011;29216;51.248;6.808;2023-09-08T10:22:33;8.82;;;4.07;;
43248;SDS011;29216;51.248;6.808;2023-09-08T10:25:03;6.78;;;3.85;;
43248;SDS011;29216;51.248;6.808;2023-09-08T10:27:30;6.70;;;3.97;;
43248;SDS011;29216;51.248;6.808;2023-09-08T10:29:57;5.20;;;4.00;;
43248;SDS011;29216;51.248;6.808;2023-09-08T10:32:26;7.45;;;3.90;;
43248;SDS011;29216;51.248;6.808;2023-09-08T10:34:52;8.57;;;4.47;;
43248;SDS011;29216;51.248;6.808;2023-09-08T10:37:23;8.85;;;4.13;;
43248;SDS011;29216;51.248;6.808;2023-09-08T10:39:50;5.05;;;3.70;;
43248;SDS011;29216;51.248;6.808;2023-09-08T10:47:18;7.22;;;3.50;;
43248;SDS011;29216;51.248;6.808;2023-09-08T10:49:44;4.72;;;3.90;;
43248;SDS011;29216;51.248;6.808;2023-09-08T10:52:13;7.10;;;4.20;;
43248;SDS011;29216;51.248;6.808;2023-09-08T10:57:12;6.28;;;4.10;;
43248;SDS011;29216;51.248;6.808;2023-09-08T10:59:38;11.88;;;4.53;;
43248;SDS011;29216;51.248;6.808;2023-09-08T11:02:05;5.95;;;4.30;;
43248;SDS011;29216;51.248;6.808;2023-09-08T11:04:31;5.53;;;4.30;;
43248;SDS011;29216;51.248;6.808;2023-09-08T11:06:58;8.70;;;4.47;;
43248;SDS011;29216;51.248;6.808;2023-09-08T11:09:24;12.05;;;4.75;;
43248;SDS011;29216;51.248;6.808;2023-09-08T11:11:50;7.28;;;4.13;;
43248;SDS011;29216;51.248;6.808;2023-09-08T11:14:16;7.85;;;4.28;;
43248;SDS011;29216;51.248;6.808;2023-09-08T11:16:43;8.13;;;4.35;;
43248;SDS011;29216;51.248;6.808;2023-09-08T11:19:09;5.90;;;4.05;;
43248;SDS011;29216;51.248;6.808;2023-09-08T11:21:35;8.88;;;3.72;;
43248;SDS011;29216;51.248;6.808;2023-09-08T11:24:02;4.53;;;3.70;;
43248;SDS011;29216;51.248;6.808;2023-09-08T11:26:32;4.88;;;4.35;;
43248;SDS011;29216;51.248;6.808;2023-09-08T11:28:58;5.40;;;3.92;;
43248;SDS011;29216;51.248;6.808;2023-09-08T11:31:24;4.88;;;4.20;;
43248;SDS011;29216;51.248;6.808;2023-09-08T11:33:54;5.35;;;3.80;;
43248;SDS011;29216;51.248;6.808;2023-09-08T11:36:20;6.40;;;4.70;;
43248;SDS011;29216;51.248;6.808;2023-09-08T11:38:46;7.05;;;4.32;;
43248;SDS011;29216;51.248;6.808;2023-09-08T11:41:12;6.35;;;4.43;;
43248;SDS011;29216;51.248;6.808;2023-09-08T11:43:38;5.55;;;4.38;;
43248;SDS011;29216;51.248;6.808;2023-09-08T11:46:06;8.85;;;4.13;;
43248;SDS011;29216;51.248;6.808;2023-09-08T11:48:32;5.05;;;4.30;;
43248;SDS011;29216;51.248;6.808;2023-09-08T11:50:58;6.43;;;4.45;;
43248;SDS011;29216;51.248;6.808;2023-09-08T11:53:24;7.45;;;4.68;;
43248;SDS011;29216;51.248;6.808;2023-09-08T11:55:50;4.93;;;4.13;;
43248;SDS011;29216;51.248;6.808;2023-09-08T11:58:17;8.32;;;4.68;;
43248;SDS011;29216;51.248;6.808;2023-09-08T12:00:44;10.88;;;4.00;;
43248;SDS011;29216;51.248;6.808;2023-09-08T12:03:13;5.30;;;4.47;;
43248;SDS011;29216;51.248;6.808;2023-09-08T12:05:43;7.97;;;4.25;;
43248;SDS011;29216;51.248;6.808;2023-09-08T12:08:09;6.85;;;4.30;;
43248;SDS011;29216;51.248;6.808;2023-09-08T12:10:39;6.70;;;4.45;;
43248;SDS011;29216;51.248;6.808;2023-09-08T12:13:05;7.60;;;4.20;;
43248;SDS011;29216;51.248;6.808;2023-09-08T12:15:38;7.63;;;4.25;;
43248;SDS011;29216;51.248;6.808;2023-09-08T12:18:09;5.45;;;4.47;;
43248;SDS011;29216;51.248;6.808;2023-09-08T12:20:35;6.38;;;4.00;;
43248;SDS011;29216;51.248;6.808;2023-09-08T12:23:02;6.35;;;4.30;;
43248;SDS011;29216;51.248;6.808;2023-09-08T12:25:29;5.30;;;4.20;;
43248;SDS011;29216;51.248;6.808;2023-09-08T12:27:59;7.35;;;4.47;;
43248;SDS011;29216;51.248;6.808;2023-09-08T12:30:26;5.50;;;4.22;;
43248;SDS011;29216;51.248;6.808;2023-09-08T12:32:58;5.78;;;3.80;;
43248;SDS011;29216;51.248;6.808;2023-09-08T12:35:24;5.05;;;4.00;;
43248;SDS011;29216;51.248;6.808;2023-09-08T12:37:54;6.53;;;4.00;;
43248;SDS011;29216;51.248;6.808;2023-09-08T12:40:23;6.57;;;4.17;;
43248;SDS011;29216;51.248;6.808;2023-09-08T12:42:49;7.05;;;4.00;;
43248;SDS011;29216;51.248;6.808;2023-09-08T12:45:15;7.07;;;4.03;;
43248;SDS011;29216;51.248;6.808;2023-09-08T12:47:41;5.78;;;3.70;;
43248;SDS011;29216;51.248;6.808;2023-09-08T12:50:08;4.50;;;3.78;;
43248;SDS011;29216;51.248;6.808;2023-09-08T12:52:34;6.15;;;3.83;;
43248;SDS011;29216;51.248;6.808;2023-09-08T12:55:00;4.93;;;4.10;;
43248;SDS011;29216;51.248;6.808;2023-09-08T12:57:26;5.80;;;3.60;;
43248;SDS011;29216;51.248;6.808;2023-09-08T12:59:52;8.88;;;4.50;;
43248;SDS011;29216;51.248;6.808;2023-09-08T13:02:19;8.13;;;3.97;;
43248;SDS011;29216;51.248;6.808;2023-09-08T13:04:45;5.68;;;4.47;;
43248;SDS011;29216;51.248;6.808;2023-09-08T13:07:14;6.35;;;4.22;;
43248;SDS011;29216;51.248;6.808;2023-09-08T13:09:40;4.90;;;3.80;;
43248;SDS011;29216;51.248;6.808;2023-09-08T13:12:06;6.13;;;3.72;;
43248;SDS011;29216;51.248;6.808;2023-09-08T13:14:34;4.47;;;3.80;;
43248;SDS011;29216;51.248;6.808;2023-09-08T13:17:00;5.65;;;3.92;;
43248;SDS011;29216;51.248;6.808;2023-09-08T13:19:26;7.57;;;4.30;;
43248;SDS011;29216;51.248;6.808;2023-09-08T13:21:52;5.43;;;4.07;;
43248;SDS011;29216;51.248;6.808;2023-09-08T13:24:18;6.85;;;3.95;;
43248;SDS011;29216;51.248;6.808;2023-09-08T13:26:45;5.45;;;3.83;;
43248;SDS011;29216;51.248;6.808;2023-09-08T13:29:11;6.15;;;4.40;;
43248;SDS011;29216;51.248;6.808;2023-09-08T13:31:37;6.70;;;4.13;;
43248;SDS011;29216;51.248;6.808;2023-09-08T13:34:03;7.53;;;3.80;;
43248;SDS011;29216;51.248;6.808;2023-09-08T13:36:30;5.57;;;4.35;;
43248;SDS011;29216;51.248;6.808;2023-09-08T13:38:56;4.78;;;3.70;;
43248;SDS011;29216;51.248;6.808;2023-09-08T13:41:23;5.93;;;4.50;;
43248;SDS011;29216;51.248;6.808;2023-09-08T13:43:49;7.05;;;4.28;;
43248;SDS011;29216;51.248;6.808;2023-09-08T13:46:15;7.63;;;4.10;;
43248;SDS011;29216;51.248;6.808;2023-09-08T13:48:41;12.13;;;4.35;;
43248;SDS011;29216;51.248;6.808;2023-09-08T13:51:07;4.90;;;4.05;;
43248;SDS011;29216;51.248;6.808;2023-09-08T13:53:33;6.93;;;3.80;;
43248;SDS011;29216;51.248;6.808;2023-09-08T13:56:00;4.53;;;3.58;;
43248;SDS011;29216;51.248;6.808;2023-09-08T13:58:26;5.93;;;3.60;;
43248;SDS011;29216;51.248;6.808;2023-09-08T14:00:52;8.57;;;4.10;;
43248;SDS011;29216;51.248;6.808;2023-09-08T14:03:18;6.18;;;3.97;;
43248;SDS011;29216;51.248;6.808;2023-09-08T14:05:44;9.30;;;3.83;;
43248;SDS011;29216;51.248;6.808;2023-09-08T14:08:10;5.15;;;3.65;;
43248;SDS011;29216;51.248;6.808;2023-09-08T14:10:36;6.60;;;3.85;;
43248;SDS011;29216;51.248;6.808;2023-09-08T14:13:02;5.53;;;3.97;;
43248;SDS011;29216;51.248;6.808;2023-09-08T14:15:28;5.85;;;3.88;;
43248;SDS011;29216;51.248;6.808;2023-09-08T14:17:54;9.23;;;3.75;;
43248;SDS011;29216;51.248;6.808;2023-09-08T14:20:21;6.28;;;3.92;;
43248;SDS011;29216;51.248;6.808;2023-09-08T14:22:47;6.22;;;4.20;;
43248;SDS011;29216;51.248;6.808;2023-09-08T14:25:13;6.55;;;3.97;;
43248;SDS011;29216;51.248;6.808;2023-09-08T14:27:40;4.88;;;4.10;;
43248;SDS011;29216;51.248;6.808;2023-09-08T14:30:06;6.53;;;3.92;;
43248;SDS011;29216;51.248;6.808;2023-09-08T14:32:32;9.13;;;4.55;;
43248;SDS011;29216;51.248;6.808;2023-09-08T14:34:58;6.22;;;4.00;;
43248;SDS011;29216;51.248;6.808;2023-09-08T14:37:24;5.32;;;3.85;;
43248;SDS011;29216;51.248;6.808;2023-09-08T14:39:50;5.43;;;3.67;;
43248;SDS011;29216;51.248;6.808;2023-09-08T14:42:16;5.70;;;4.00;;
43248;SDS011;29216;51.248;6.808;2023-09-08T14:44:42;5.43;;;3.75;;
43248;SDS011;29216;51.248;6.808;2023-09-08T14:47:08;8.20;;;4.20;;
43248;SDS011;29216;51.248;6.808;2023-09-08T14:49:34;6.63;;;3.80;;
43248;SDS011;29216;51.248;6.808;2023-09-08T14:52:00;4.60;;;4.07;;
43248;SDS011;29216;51.248;6.808;2023-09-08T14:54:26;7.35;;;4.00;;
43248;SDS011;29216;51.248;6.808;2023-09-08T14:56:53;6.63;;;4.60;;